METAR v bližini

 

LIPQ - Ronchi Legionari, Italy
Oddaljenost od postaje: JZ 35km
Podatki zajeti: 14/07/2020 05:50
Pretežno oblačno
Pretežno oblačno
 Veter iz smeri SSZ
Veter: SSZ 7 km/h
Temperatura: 15°C
Temp. rosišča: 11°C
Vlažnost: 77%
Tlak: 1017 hPa
Oblačnost: Pretežno oblačno
Vidljivost: 10 km
Podrobnosti o oblakih: Pretežno oblačno 2225 m
2020/07/14 03:50 LIPQ 140350Z AUTO 33004KT 9999 BKN073/// 15/11 Q1017
LIVT - Trieste, Italy
Oddaljenost od postaje: J 49km
Podatki zajeti: 14/07/2020 05:55
Jasno
Jasno
 Veter iz smeri spremenljiv
Veter: spremenljiv 0 km/h
Temperatura: 17°C
Temp. rosišča: 10°C
Vlažnost: 64%
Tlak: 1016 hPa
Stanje: Jasno
Vidljivost: večja od 10 km
2020/07/14 03:55 LIVT 140355Z /////KT CAVOK 17/10 Q1016
 
LIVO - Tarvisio, Italy
Oddaljenost od postaje: SSZ 49km
Podatki zajeti: 13/07/2020 19:55
Ni posodobljen
Rahlo oblačno
Rahlo oblačno
 Veter iz smeri VSV
Veter: VSV 9 km/h
Temperatura: 18°C
Temp. rosišča: 9°C
Vlažnost: 56%
Tlak: 1019 hPa
Oblačnost: Rahlo oblačno
Vidljivost: 10 km
Podrobnosti o oblakih: Rahlo oblačno 1067 m
2020/07/13 17:55 LIVO 131755Z 06005KT 9999 FEW035 18/09 Q1019 RMK SCT SCT300 VIS MIN 9999
LIPI - Rivolto (it-Afb), Italy
Oddaljenost od postaje: ZJZ 57km
Podatki zajeti: 14/07/2020 05:55
Rahlo oblačno
Rahlo oblačno
 Veter iz smeri S
Veter: S 6 km/h
Temperatura: 20°C
Temp. rosišča: 18°C
Vlažnost: 88%
Tlak: 1017 hPa
Oblačnost: Rahlo oblačno
Vidljivost: 10 km
Podrobnosti o oblakih: Rahlo oblačno 2743 m
2020/07/14 03:55 LIPI 140355Z 01003KT 9999 FEW090 20/18 Q1017 RMK FEW VIS MIN 9999 WIND THR06 06004KT WIND THR24 05004KT BLU
 
LJLJ - Ljubljana/Brnik, Slovenia
Oddaljenost od postaje: VSV 59km
Podatki zajeti: 14/07/2020 06:00
Jasno
Jasno
 Veter iz smeri spremenljiv
Veter: spremenljiv 2 km/h
Temperatura: 8°C
Temp. rosišča: 8°C
Vlažnost: 100%
Tlak: 1018 hPa
Stanje: Jasno
Vidljivost: večja od 10 km
2020/07/14 04:00 LJLJ 140400Z VRB01KT CAVOK 08/08 Q1018 NOSIG
LJPZ - Portoroz, Slovenia
Oddaljenost od postaje: J 68km
Podatki zajeti: 14/07/2020 06:00
Jasno
Jasno
 Veter iz smeri JV
Veter: JV 11 km/h
Temperatura: 13°C
Temp. rosišča: 8°C
Vlažnost: 72%
Tlak: 1017 hPa
Stanje: Jasno
Vidljivost: večja od 10 km
2020/07/14 04:00 LJPZ 140400Z 13006KT CAVOK 13/08 Q1017
 
LOWK - Klagenfurt(Civ/M, Austria
Oddaljenost od postaje: SV 78km
Podatki zajeti: 14/07/2020 05:50
Rahlo oblačno
Rahlo oblačno
 Veter iz smeri spremenljiv
Veter: spremenljiv 4 km/h
Temperatura: 12°C
Temp. rosišča: 9°C
Vlažnost: 82%
Tlak: 1020 hPa
Oblačnost: Rahlo oblačno
Vidljivost: 10 km
Podrobnosti o oblakih: Rahlo oblačno 1829 m
2020/07/14 03:50 LOWK 140350Z AUTO VRB02KT 9999 FEW060 12/09 Q1020
LIYW - Aviano (usaf), Italy
Oddaljenost od postaje: Z 86km
Podatki zajeti: 20/10/2015 15:58
Ni posodobljen
Jasno
Jasno
 Veter iz smeri JJZ
Veter: JJZ 6 km/h
Temperatura: 17°C
Temp. rosišča: 3°C
Vlažnost: 39%
Tlak: 1016.3 hPa
Oblačnost: Jasno
Vidljivost: 10 km
2015/10/20 13:58 LIYW 201358Z AUTO 21003KT 9999 CLR 17/03 A3001 RMK AO2 SLP167 T01660029
 
LIPA - Aviano (it/Us-Af, Italy
Oddaljenost od postaje: Z 89km
Podatki zajeti: 14/07/2020 05:55
Pretežno oblačno
Pretežno oblačno
 Veter iz smeri SSZ
Veter: SSZ 6 km/h
Temperatura: 19°C
Temp. rosišča: 12°C
Vlažnost: 64%
Tlak: 1017 hPa
Oblačnost: Pretežno oblačno
Vidljivost: 10 km
Podrobnosti o oblakih: Pretežno oblačno 2743 m
2020/07/14 03:55 LIPA 140355Z 34003KT 9999 BKN090 19/12 Q1017 RMK BKN VIS MIN 9999 WIND THR05 /////KT WIND THR23 /////KT A3005 BLU
LDRI - Rijeka/Omisalj, Croatia
Oddaljenost od postaje: JV 115km
Podatki zajeti: 14/07/2020 06:00
Jasno
Jasno
 Veter iz smeri S
Veter: S 15 km/h
Temperatura: 18°C
Temp. rosišča: 8°C
Vlažnost: 52%
Tlak: 1016 hPa
Stanje: Jasno
Vidljivost: večja od 10 km
2020/07/14 04:00 LDRI 140400Z 01008KT CAVOK 18/08 Q1016
 
LIPZ - Venezia/Tessera, Italy
Oddaljenost od postaje: ZJZ 127km
Podatki zajeti: 14/07/2020 05:50
Jasno
Jasno
 Veter iz smeri SV
Veter: SV 15 km/h
Temperatura: 18°C
Temp. rosišča: 9°C
Vlažnost: 56%
Tlak: 1016 hPa
Stanje: Jasno
Vidljivost: večja od 10 km
2020/07/14 03:50 LIPZ 140350Z 04008KT CAVOK 18/09 Q1016 NOSIG
LDPL - Pula, Croatia
Oddaljenost od postaje: J 133km
Podatki zajeti: 14/07/2020 06:00
Jasno
Jasno
 Veter iz smeri SV
Veter: SV 17 km/h
Temperatura: 18°C
Temp. rosišča: 10°C
Vlažnost: 60%
Tlak: 1015 hPa
Stanje: Jasno
Vidljivost: večja od 10 km
2020/07/14 04:00 LDPL 140400Z 04009KT CAVOK 18/10 Q1015 NOSIG
 
LIPS - Istrana (it-Afb), Italy
Oddaljenost od postaje: ZJZ 136km
Podatki zajeti: 14/07/2020 05:55
Delno oblačno
Delno oblačno
 Veter iz smeri spremenljiv
Veter: spremenljiv 0 km/h
Temperatura: 20°C
Temp. rosišča: 14°C
Vlažnost: 69%
Tlak: 1017 hPa
Oblačnost: Delno oblačno
Vidljivost: 10 km
Podrobnosti o oblakih: Delno oblačno 2743 m
2020/07/14 03:55 LIPS 140355Z /////KT 9999 SCT090 20/14 Q1017 RMK BKN BKN110 VIS MIN 9999 WIND THR26 01005KT WIND THR08 03005KT BLU
LIVD - Dobbiaco, Italy
Oddaljenost od postaje: ZSZ 137km
Podatki zajeti: 13/07/2020 19:55
Ni posodobljen
Delno oblačno
Delno oblačno
 Veter iz smeri spremenljiv
Veter: spremenljiv 0 km/h
Temperatura: 17°C
Temp. rosišča: 8°C
Vlažnost: 56%
Tlak: 1021 hPa
Oblačnost: Delno oblačno
Vidljivost: 10 km
Podrobnosti o oblakih: Delno oblačno 762 m
2020/07/13 17:55 LIVD 131755Z /////KT 9999 SCT025 17/08 Q1021 RMK BKN SCT200 VIS MIN 9999 BLU
 
LJCE - Cerklje, Slovenia
Oddaljenost od postaje: V 139km
Podatki zajeti: 14/07/2020 06:00
Jasno
Jasno
 Veter iz smeri Z
Veter: Z 2 km/h
Temperatura: 10°C
Temp. rosišča: 9°C
Vlažnost: 94%
Tlak: 1018 hPa
Oblačnost: Jasno
Vidljivost: 10 km
2020/07/14 04:00 LJCE 140400Z AUTO 28001KT 9999 NCD 10/09 Q1018
LOXZ - Zeltweg (mil), Austria
Oddaljenost od postaje: SSV 147km
Podatki zajeti: 14/07/2020 05:50
Pretežno oblačno
Pretežno oblačno
 Veter iz smeri calm
Veter: Tišina
Temperatura: 10°C
Temp. rosišča: 8°C
Vlažnost: 88%
Tlak: 1020 hPa
Oblačnost: Pretežno oblačno
Podrobnosti o oblakih: Rahlo oblačno 1524 m
Delno oblačno 1829 m
Pretežno oblačno 9144 m
2020/07/14 03:50 LOXZ 140350Z 00000KT 30KM FEW050SC SCT060SC BKN300CI 10/08 Q1020
sucontract_SNC